createdAt,value
2018-06-01T00:02:12.689Z,36.93
2018-06-01T00:04:40.159Z,41.93
2018-06-01T00:07:07.624Z,37.13
2018-06-01T00:09:35.081Z,42.33
2018-06-01T00:12:02.536Z,37.37
2018-06-01T00:14:30.033Z,41.50
2018-06-01T00:16:58.255Z,40.23
2018-06-01T00:19:25.729Z,41.00
2018-06-01T00:21:53.196Z,43.77
2018-06-01T00:24:20.660Z,42.13
2018-06-01T00:26:48.885Z,42.90
2018-06-01T00:29:16.369Z,44.30
2018-06-01T00:31:43.840Z,44.77
2018-06-01T00:34:11.315Z,46.57
2018-06-01T00:36:40.045Z,44.67
2018-06-01T00:39:07.508Z,46.83
2018-06-01T00:41:34.976Z,46.17
2018-06-01T00:44:02.445Z,45.43
2018-06-01T00:46:29.903Z,45.53
2018-06-01T00:48:57.373Z,49.20
2018-06-01T00:51:25.619Z,51.47
2018-06-01T00:53:53.085Z,54.00
2018-06-01T00:56:20.532Z,54.83
2018-06-01T00:58:48.004Z,52.97
2018-06-01T01:01:15.464Z,54.40
2018-06-01T01:03:42.929Z,50.93
2018-06-01T01:06:10.392Z,54.97
2018-06-01T01:08:38.617Z,53.87
2018-06-01T01:11:06.096Z,52.20
2018-06-01T01:13:33.555Z,53.00
2018-06-01T01:16:01.033Z,51.03
2018-06-01T01:18:28.492Z,56.00
2018-06-01T01:20:56.742Z,57.87
2018-06-01T01:23:25.744Z,53.57
2018-06-01T01:25:53.209Z,56.17
2018-06-01T01:28:20.674Z,54.87
2018-06-01T01:30:48.911Z,58.17
2018-06-01T01:33:16.373Z,54.37
2018-06-01T01:35:43.844Z,57.80
2018-06-01T01:38:11.322Z,55.47
2018-06-01T01:40:39.565Z,53.87
2018-06-01T01:43:07.040Z,54.47
2018-06-01T01:45:34.509Z,55.10
2018-06-01T01:48:02.741Z,54.80
2018-06-01T01:50:30.200Z,60.73
2018-06-01T01:52:57.672Z,58.17
2018-06-01T01:55:25.137Z,57.70
2018-06-01T01:57:52.613Z,56.20
2018-06-01T02:00:20.851Z,58.10
2018-06-01T02:02:48.321Z,60.57
2018-06-01T02:05:15.790Z,59.77
2018-06-01T02:07:44.617Z,65.70
2018-06-01T02:10:12.082Z,68.90
2018-06-01T02:12:39.542Z,75.03
2018-06-01T02:15:07.010Z,67.20
2018-06-01T02:17:34.484Z,70.60
2018-06-01T02:20:01.952Z,65.93
2018-06-01T02:22:29.433Z,63.00
2018-06-01T02:24:57.659Z,71.83
2018-06-01T02:27:25.133Z,74.67
2018-06-01T02:29:52.601Z,66.40
2018-06-01T02:32:20.063Z,67.50
2018-06-01T02:34:47.531Z,70.00
2018-06-01T02:37:15.771Z,63.73
2018-06-01T02:39:43.249Z,64.63
2018-06-01T02:42:10.718Z,64.53
2018-06-01T02:44:38.944Z,69.27
2018-06-01T02:47:06.422Z,72.47
2018-06-01T02:49:33.900Z,75.80
2018-06-01T02:52:01.364Z,64.70
2018-06-01T02:54:29.603Z,66.50
2018-06-01T02:56:57.072Z,64.00
2018-06-01T02:59:24.537Z,62.73
2018-06-01T03:01:52.004Z,71.53
2018-06-01T03:04:19.480Z,73.93
2018-06-01T03:06:59.567Z,70.57
2018-06-01T03:09:27.036Z,71.47
2018-06-01T03:11:54.501Z,83.43
2018-06-01T03:14:23.008Z,75.87
2018-06-01T03:16:50.483Z,71.30
2018-06-01T03:19:18.714Z,80.17
2018-06-01T03:21:46.188Z,79.60
2018-06-01T03:24:13.644Z,88.17
2018-06-01T03:26:41.117Z,76.20
2018-06-01T03:29:09.360Z,78.03
2018-06-01T03:31:36.834Z,77.27
2018-06-01T03:34:04.304Z,94.37
2018-06-01T03:36:32.537Z,88.87
2018-06-01T03:39:00.078Z,89.17
2018-06-01T03:41:27.528Z,96.80
2018-06-01T03:43:54.993Z,88.80
2018-06-01T03:46:22.465Z,88.00
2018-06-01T03:48:49.935Z,94.87
2018-06-01T03:51:17.412Z,83.63
2018-06-01T03:53:44.877Z,89.80
2018-06-01T03:56:12.340Z,74.73
2018-06-01T03:58:40.585Z,72.00
2018-06-01T04:01:08.064Z,80.80
2018-06-01T04:03:35.522Z,78.27
2018-06-01T04:06:02.993Z,70.53
2018-06-01T04:08:31.226Z,63.50
2018-06-01T04:10:59.462Z,65.93
2018-06-01T04:13:26.923Z,64.57
2018-06-01T04:15:54.412Z,66.77
2018-06-01T04:18:21.882Z,69.80
2018-06-01T04:20:49.339Z,68.97
2018-06-01T04:23:16.813Z,71.93
2018-06-01T04:25:44.295Z,80.23
2018-06-01T04:28:11.751Z,79.20
2018-06-01T04:30:39.233Z,76.93
2018-06-01T04:33:06.688Z,71.33
2018-06-01T04:35:34.159Z,76.60
2018-06-01T04:38:01.635Z,73.63
2018-06-01T04:40:29.131Z,84.43
2018-06-01T04:42:57.361Z,75.00
2018-06-01T04:45:24.824Z,72.07
2018-06-01T04:47:52.299Z,81.67
2018-06-01T04:50:20.537Z,71.70
2018-06-01T04:52:48.008Z,79.57
2018-06-01T04:55:15.485Z,79.80
2018-06-01T04:57:42.945Z,79.57
2018-06-01T05:00:10.458Z,80.47
2018-06-01T05:02:38.535Z,78.57
2018-06-01T05:05:05.991Z,77.50
2018-06-01T05:07:33.464Z,73.80
2018-06-01T05:10:00.933Z,81.53
2018-06-01T05:12:28.405Z,77.67
2018-06-01T05:14:56.637Z,74.37
2018-06-01T05:17:24.883Z,82.67
2018-06-01T05:19:52.368Z,75.47
2018-06-01T05:22:19.830Z,76.03
2018-06-01T05:24:47.297Z,76.57
2018-06-01T05:27:14.761Z,80.00
2018-06-01T05:29:42.245Z,76.37
2018-06-01T05:32:10.475Z,80.73
2018-06-01T05:34:37.941Z,78.40
2018-06-01T05:37:05.413Z,84.67
2018-06-01T05:39:32.879Z,83.27
2018-06-01T05:42:00.362Z,86.93
2018-06-01T05:44:27.837Z,87.60
2018-06-01T05:46:55.307Z,85.37
2018-06-01T05:49:22.772Z,81.03
2018-06-01T05:51:50.232Z,84.37
2018-06-01T05:54:17.709Z,80.57
2018-06-01T05:56:45.186Z,86.50
2018-06-01T05:59:13.407Z,78.63
2018-06-01T06:01:40.883Z,81.80
2018-06-01T06:04:08.344Z,73.77
2018-06-01T06:06:35.821Z,71.47
2018-06-01T06:09:03.301Z,70.47
2018-06-01T06:11:31.512Z,65.27
2018-06-01T06:13:58.996Z,65.50
2018-06-01T06:16:26.452Z,64.50
2018-06-01T06:18:53.916Z,59.30
2018-06-01T06:21:21.406Z,54.47
2018-06-01T06:23:48.872Z,57.40
2018-06-01T06:26:16.351Z,54.60
2018-06-01T06:28:43.817Z,53.17
2018-06-01T06:31:12.273Z,52.27
2018-06-01T06:33:39.745Z,55.27
2018-06-01T06:36:07.244Z,52.40
2018-06-01T06:38:34.747Z,54.27
2018-06-01T06:41:02.209Z,55.00
2018-06-01T06:43:29.681Z,55.63
2018-06-01T06:45:58.045Z,55.30
2018-06-01T06:48:25.509Z,54.10
2018-06-01T06:50:52.988Z,58.70
2018-06-01T06:56:18.651Z,59.37
2018-06-01T06:58:46.889Z,58.97
2018-06-01T07:01:14.340Z,53.73
2018-06-01T07:03:41.800Z,55.07
2018-06-01T07:06:09.280Z,54.20
2018-06-01T07:08:36.736Z,56.07
2018-06-01T07:11:04.197Z,44.60
2018-06-01T07:13:31.668Z,44.40
2018-06-01T07:15:59.890Z,46.30
2018-06-01T07:18:27.364Z,43.90
2018-06-01T07:20:54.827Z,46.90
2018-06-01T07:23:22.283Z,44.37
2018-06-01T07:25:49.756Z,43.30
2018-06-01T07:28:17.221Z,36.67
2018-06-01T07:30:44.683Z,34.07
2018-06-01T07:33:12.971Z,30.40
2018-06-01T07:35:40.387Z,29.80
2018-06-01T07:38:07.863Z,31.10
2018-06-01T07:40:35.335Z,31.43
2018-06-01T07:43:03.561Z,33.03
2018-06-01T07:45:31.028Z,30.57
2018-06-01T07:47:58.520Z,30.37
2018-06-01T07:50:26.762Z,31.23
2018-06-01T07:52:54.236Z,31.20
2018-06-01T07:55:21.695Z,33.93
2018-06-01T07:57:49.164Z,35.53
2018-06-01T08:00:17.416Z,33.57
2018-06-01T08:02:44.876Z,34.37
2018-06-01T08:05:12.334Z,36.60
2018-06-01T08:07:39.803Z,32.10
2018-06-01T08:10:08.042Z,30.57
2018-06-01T08:12:35.498Z,32.00
2018-06-01T08:15:02.963Z,28.87
2018-06-01T08:17:30.435Z,28.57
2018-06-01T08:19:57.901Z,27.83
2018-06-01T08:22:25.372Z,25.43
2018-06-01T08:24:53.604Z,26.40
2018-06-01T08:27:21.065Z,24.00
2018-06-01T08:29:48.526Z,25.07
2018-06-01T08:32:16.040Z,26.10
2018-06-01T08:34:43.457Z,25.20
2018-06-01T08:37:10.917Z,25.13
2018-06-01T08:39:38.420Z,26.70
2018-06-01T08:42:05.884Z,26.53
2018-06-01T08:44:33.344Z,26.17
2018-06-01T08:47:00.805Z,26.17
2018-06-01T08:49:28.272Z,27.97
2018-06-01T08:51:55.744Z,27.70
2018-06-01T08:54:23.205Z,26.37
2018-06-01T08:56:50.677Z,26.90
2018-06-01T08:59:18.896Z,27.13
2018-06-01T09:01:46.352Z,27.23
2018-06-01T09:04:13.823Z,24.97
2018-06-01T09:06:41.300Z,27.77
2018-06-01T09:09:08.766Z,25.93
2018-06-01T09:11:36.225Z,24.97
2018-06-01T09:14:03.697Z,23.53
2018-06-01T09:16:31.925Z,24.43
2018-06-01T09:18:59.395Z,25.23
2018-06-01T09:21:26.861Z,24.77
2018-06-01T09:23:54.329Z,25.30
2018-06-01T09:26:21.805Z,23.73
2018-06-01T09:28:50.032Z,24.67
2018-06-01T09:31:18.349Z,23.20
2018-06-01T09:33:46.598Z,20.30
2018-06-01T09:36:14.048Z,21.07
2018-06-01T09:38:41.516Z,17.33
2018-06-01T09:41:08.982Z,19.07
2018-06-01T09:43:36.453Z,19.73
2018-06-01T09:46:04.678Z,22.10
2018-06-01T09:48:32.140Z,19.93
2018-06-01T09:50:59.617Z,22.97
2018-06-01T09:53:27.081Z,22.13
2018-06-01T09:55:54.548Z,21.03
2018-06-01T09:58:22.796Z,21.67
2018-06-01T10:00:55.997Z,22.53
2018-06-01T10:03:23.457Z,21.57
2018-06-01T10:05:50.921Z,21.00
2018-06-01T10:08:18.401Z,25.00
2018-06-01T10:10:46.616Z,22.07
2018-06-01T10:13:14.084Z,22.20
2018-06-01T10:15:41.613Z,23.93
2018-06-01T10:18:09.786Z,23.90
2018-06-01T10:20:37.248Z,23.40
2018-06-01T10:23:04.705Z,24.70
2018-06-01T10:25:32.176Z,25.50
2018-06-01T10:27:59.641Z,25.57
2018-06-01T10:30:27.101Z,24.47
2018-06-01T10:32:54.647Z,24.17
2018-06-01T10:35:22.823Z,20.17
2018-06-01T10:37:50.299Z,23.33
2018-06-01T10:40:17.769Z,23.07
2018-06-01T10:42:45.230Z,21.83
2018-06-01T10:45:12.772Z,24.90
2018-06-01T10:47:40.228Z,21.03
2018-06-01T10:50:07.697Z,22.10
2018-06-01T10:52:35.164Z,25.20
2018-06-01T10:55:03.417Z,22.17
2018-06-01T10:57:30.876Z,22.50
2018-06-01T10:59:58.335Z,21.40
2018-06-01T11:02:25.803Z,22.17
2018-06-01T11:04:54.042Z,19.73
2018-06-01T11:07:21.509Z,20.57
2018-06-01T11:09:48.967Z,16.67
2018-06-01T11:12:16.450Z,17.07
2018-06-01T11:14:43.909Z,17.90
2018-06-01T11:17:12.132Z,18.07
2018-06-01T11:19:39.617Z,17.93
2018-06-01T11:22:07.843Z,17.57
2018-06-01T11:24:35.301Z,17.23
2018-06-01T11:27:02.787Z,18.57
2018-06-01T11:29:30.236Z,17.87
2018-06-01T11:31:57.693Z,17.50
2018-06-01T11:34:25.165Z,15.40
2018-06-01T11:36:52.634Z,15.50
2018-06-01T11:39:20.103Z,15.30
2018-06-01T11:41:47.560Z,15.03
2018-06-01T11:44:15.020Z,15.30
2018-06-01T11:46:42.503Z,15.20
2018-06-01T11:49:09.956Z,16.23
2018-06-01T11:51:38.201Z,18.10
2018-06-01T11:54:05.672Z,17.80
2018-06-01T11:56:33.888Z,17.10
2018-06-01T11:59:01.346Z,16.07
2018-06-01T12:01:28.828Z,14.07
2018-06-01T12:03:56.293Z,15.60
2018-06-01T12:06:23.744Z,11.93
2018-06-01T12:08:51.217Z,13.53
2018-06-01T12:11:18.682Z,13.87
2018-06-01T12:13:46.157Z,14.03
2018-06-01T12:16:14.374Z,12.63
2018-06-01T12:18:41.833Z,12.83
2018-06-01T12:21:09.301Z,15.00
2018-06-01T12:23:36.757Z,15.00
2018-06-01T12:26:04.240Z,14.70
2018-06-01T12:28:31.705Z,15.90
2018-06-01T12:30:59.929Z,17.57
2018-06-01T12:33:27.400Z,18.60
2018-06-01T12:35:54.866Z,17.60
2018-06-01T12:38:22.336Z,20.00
2018-06-01T12:40:49.810Z,18.97
2018-06-01T12:43:18.037Z,18.07
2018-06-01T12:45:45.510Z,16.47
2018-06-01T12:48:12.969Z,17.10
2018-06-01T12:50:40.428Z,18.13
2018-06-01T12:53:07.912Z,16.43
2018-06-01T12:55:36.140Z,17.73
2018-06-01T12:58:03.625Z,15.50
2018-06-01T13:00:31.104Z,16.27
2018-06-01T13:02:59.333Z,18.17
2018-06-01T13:05:26.808Z,16.83
2018-06-01T13:07:54.269Z,18.60
2018-06-01T13:10:22.367Z,19.00
2018-06-01T13:12:50.610Z,18.30
2018-06-01T13:15:18.111Z,17.73
2018-06-01T13:17:45.543Z,18.80
2018-06-01T13:20:13.776Z,19.67
2018-06-01T13:22:41.243Z,19.97
2018-06-01T13:25:08.722Z,19.93
2018-06-01T13:27:36.194Z,20.93
2018-06-01T13:30:04.411Z,19.97
2018-06-01T13:32:31.889Z,22.67
2018-06-01T13:34:59.349Z,21.60
2018-06-01T13:37:26.828Z,23.30
2018-06-01T13:39:54.305Z,23.60
2018-06-01T13:42:22.526Z,24.67
2018-06-01T13:44:50.009Z,25.30
2018-06-01T13:47:18.976Z,26.53
2018-06-01T13:49:46.439Z,24.33
2018-06-01T13:52:13.913Z,27.93
2018-06-01T13:54:41.385Z,28.23
2018-06-01T13:57:09.605Z,27.37
2018-06-01T13:59:37.086Z,25.70
2018-06-01T14:02:04.556Z,27.80
2018-06-01T14:04:32.032Z,25.10
2018-06-01T14:07:00.273Z,25.90
2018-06-01T14:09:27.776Z,27.27
2018-06-01T14:11:55.207Z,28.20
2018-06-01T14:14:22.665Z,27.50
2018-06-01T14:16:50.144Z,30.13
2018-06-01T14:19:18.427Z,31.50
2018-06-01T14:21:45.834Z,31.53
2018-06-01T14:24:13.314Z,32.20
2018-06-01T14:26:40.810Z,34.10
2018-06-01T14:29:08.253Z,31.63
2018-06-01T14:31:35.716Z,32.17
2018-06-01T14:34:03.192Z,33.73
2018-06-01T14:36:30.656Z,29.70
2018-06-01T14:38:58.112Z,31.27
2018-06-01T14:41:25.601Z,30.23
2018-06-01T14:43:53.085Z,30.37
2018-06-01T14:46:20.525Z,32.70
2018-06-01T14:48:47.992Z,33.17
2018-06-01T14:51:16.213Z,31.60
2018-06-01T14:53:43.696Z,30.03
2018-06-01T14:56:11.169Z,29.70
2018-06-01T14:58:38.624Z,30.77
2018-06-01T15:01:06.100Z,28.70
2018-06-01T15:03:34.340Z,27.43
2018-06-01T15:06:01.815Z,25.87
2018-06-01T15:08:29.376Z,25.37
2018-06-01T15:10:56.788Z,25.63
2018-06-01T15:13:24.249Z,25.83
2018-06-01T15:15:51.736Z,25.70
2018-06-01T15:18:19.194Z,28.00
2018-06-01T15:20:46.648Z,26.63
2018-06-01T15:23:14.128Z,26.03
2018-06-01T15:25:42.401Z,25.13
2018-06-01T15:28:09.845Z,23.07
2018-06-01T15:30:37.305Z,22.40
2018-06-01T15:33:04.768Z,22.97
2018-06-01T15:35:33.013Z,22.13
2018-06-01T15:38:00.468Z,22.73
2018-06-01T15:40:27.976Z,22.53
2018-06-01T15:42:55.437Z,26.60
2018-06-01T15:45:22.904Z,23.57
2018-06-01T15:47:50.356Z,24.97
2018-06-01T15:50:17.818Z,26.87
2018-06-01T15:52:45.307Z,26.80
2018-06-01T15:55:12.786Z,27.23
2018-06-01T15:57:40.264Z,27.10
2018-06-01T16:00:08.494Z,28.03
2018-06-01T16:02:35.960Z,26.27
2018-06-01T16:05:03.437Z,25.83
2018-06-01T16:07:30.901Z,23.90
2018-06-01T16:09:58.364Z,24.60
2018-06-01T16:12:26.624Z,25.47
2018-06-01T16:14:54.078Z,23.43
2018-06-01T16:17:21.552Z,27.17
2018-06-01T16:19:49.798Z,25.50
2018-06-01T16:22:18.761Z,25.07
2018-06-01T16:24:46.230Z,23.87
2018-06-01T16:27:14.474Z,22.93
2018-06-01T16:29:41.944Z,24.03
2018-06-01T16:32:09.412Z,23.10
2018-06-01T16:34:36.872Z,25.07
2018-06-01T16:37:04.344Z,23.67
2018-06-01T16:39:32.581Z,27.53
2018-06-01T16:42:00.043Z,27.90
2018-06-01T16:44:27.512Z,29.47
2018-06-01T16:46:55.037Z,30.73
2018-06-01T16:49:22.515Z,29.00
2018-06-01T16:51:49.966Z,31.80
2018-06-01T16:54:17.460Z,32.27
2018-06-01T16:56:44.916Z,34.83
2018-06-01T16:59:12.444Z,31.97
2018-06-01T17:01:39.905Z,32.73
2018-06-01T17:04:07.364Z,31.90
2018-06-01T17:06:34.815Z,30.60
2018-06-01T17:09:02.305Z,29.20
2018-06-01T17:11:29.761Z,28.53
2018-06-01T17:13:57.277Z,25.83
2018-06-01T17:16:25.308Z,27.60
2018-06-01T17:18:52.813Z,27.30
2018-06-01T17:21:20.288Z,24.23
2018-06-01T17:23:47.884Z,23.90
2018-06-01T17:26:15.356Z,23.70
2018-06-01T17:28:43.588Z,24.17
2018-06-01T17:31:11.074Z,22.17
2018-06-01T17:33:39.334Z,23.03
2018-06-01T17:36:06.793Z,19.23
2018-06-01T17:38:34.353Z,18.37
2018-06-01T17:41:01.813Z,20.40
2018-06-01T17:43:29.292Z,19.20
2018-06-01T17:45:57.556Z,18.67
2018-06-01T17:48:25.099Z,17.30
2018-06-01T17:50:52.593Z,19.57
2018-06-01T17:53:20.831Z,19.97
2018-06-01T17:55:48.296Z,23.00
2018-06-01T17:58:15.764Z,21.20
2018-06-01T18:00:44.032Z,19.00
2018-06-01T18:03:11.484Z,21.73
2018-06-01T18:05:38.971Z,20.27
2018-06-01T18:08:07.212Z,19.97
2018-06-01T18:10:34.696Z,18.97
2018-06-01T18:13:03.056Z,18.20
2018-06-01T18:15:30.609Z,19.57
2018-06-01T18:17:58.125Z,19.93
2018-06-01T18:20:25.589Z,18.40
2018-06-01T18:22:53.169Z,19.67
2018-06-01T18:25:20.628Z,19.60
2018-06-01T18:27:48.080Z,20.60
2018-06-01T18:30:16.456Z,17.00
2018-06-01T18:32:45.596Z,17.40
2018-06-01T18:35:14.647Z,18.73
2018-06-01T18:37:42.167Z,17.57
2018-06-01T18:40:09.584Z,17.87
2018-06-01T18:42:37.061Z,18.53
2018-06-01T18:45:05.280Z,19.67
2018-06-01T18:47:32.752Z,19.00
2018-06-01T18:50:00.223Z,17.20
2018-06-01T18:52:27.718Z,17.40
2018-06-01T18:54:55.196Z,17.47
2018-06-01T18:57:22.668Z,15.83
2018-06-01T18:59:50.133Z,16.80
2018-06-01T19:02:17.603Z,18.10
2018-06-01T19:04:45.085Z,16.63
2018-06-01T19:07:13.313Z,17.83
2018-06-01T19:09:40.776Z,18.00
2018-06-01T19:12:09.028Z,16.83
2018-06-01T19:14:37.421Z,17.60
2018-06-01T19:17:05.614Z,17.53
2018-06-01T19:19:33.120Z,20.87
2018-06-01T19:22:00.590Z,23.90
2018-06-01T19:24:28.075Z,21.63
2018-06-01T19:26:55.536Z,21.10
2018-06-01T19:29:22.993Z,20.77
2018-06-01T19:31:50.504Z,20.67
2018-06-01T19:34:17.960Z,19.90
2018-06-01T19:36:45.433Z,21.10
2018-06-01T19:39:12.909Z,20.30
2018-06-01T19:41:40.381Z,23.23
2018-06-01T19:44:07.853Z,25.20
2018-06-01T19:46:35.319Z,26.00
2018-06-01T19:49:03.545Z,25.43
2018-06-01T19:51:31.015Z,28.70
2018-06-01T19:53:58.480Z,26.63
2018-06-01T19:56:25.943Z,28.17
2018-06-01T19:58:53.395Z,32.27
2018-06-01T20:01:20.872Z,30.50
2018-06-01T20:03:48.324Z,33.47
2018-06-01T20:06:15.797Z,31.83
2018-06-01T20:08:44.024Z,32.93
2018-06-01T20:11:11.509Z,36.37
2018-06-01T20:13:38.979Z,38.17
2018-06-01T20:16:07.225Z,37.40
2018-06-01T20:18:34.700Z,40.53
2018-06-01T20:21:02.162Z,43.90
2018-06-01T20:23:29.633Z,45.67
2018-06-01T20:25:57.883Z,41.47
2018-06-01T20:28:25.352Z,41.90
2018-06-01T20:30:52.811Z,43.87
2018-06-01T20:33:20.290Z,40.07
2018-06-01T20:35:48.523Z,34.20
2018-06-01T20:38:16.783Z,34.50
2018-06-01T20:40:44.253Z,33.60
2018-06-01T20:43:11.708Z,32.90
2018-06-01T20:45:39.180Z,32.40
2018-06-01T20:48:06.642Z,32.03
2018-06-01T20:50:34.105Z,31.60
2018-06-01T20:53:01.572Z,32.07
2018-06-01T20:55:29.790Z,31.63
2018-06-01T20:57:57.264Z,30.83
2018-06-01T21:00:24.732Z,30.27
2018-06-01T21:02:52.204Z,31.43
2018-06-01T21:05:19.671Z,29.17
2018-06-01T21:07:47.909Z,28.97
2018-06-01T21:10:15.385Z,30.63
2018-06-01T21:12:42.852Z,26.70
2018-06-01T21:15:10.320Z,29.47
2018-06-01T21:17:38.968Z,31.80
2018-06-01T21:20:06.430Z,30.37
2018-06-01T21:22:33.896Z,32.03
2018-06-01T21:25:01.353Z,36.70
2018-06-01T21:27:28.827Z,36.83
2018-06-01T21:29:56.280Z,37.10
2018-06-01T21:32:24.524Z,39.63
2018-06-01T21:34:51.992Z,45.60
2018-06-01T21:37:19.466Z,45.83
2018-06-01T21:39:46.936Z,43.93
2018-06-01T21:42:15.190Z,46.43
2018-06-01T21:44:42.653Z,45.00
2018-06-01T21:47:10.131Z,49.53
2018-06-01T21:49:38.357Z,45.90
2018-06-01T21:52:05.828Z,45.27
2018-06-01T21:54:33.301Z,45.77
2018-06-01T21:57:00.761Z,49.40
2018-06-01T21:59:29.013Z,50.53
2018-06-01T22:01:56.474Z,48.77
2018-06-01T22:04:23.944Z,50.83
2018-06-01T22:06:51.424Z,48.73
2018-06-01T22:09:19.658Z,49.73
2018-06-01T22:11:47.133Z,51.20
2018-06-01T22:14:14.617Z,53.17
2018-06-01T22:16:42.092Z,49.00
2018-06-01T22:19:09.558Z,51.07
2018-06-01T22:21:37.034Z,52.23
2018-06-01T22:24:04.542Z,45.00
2018-06-01T22:26:32.789Z,45.97
2018-06-01T22:29:00.252Z,47.43
2018-06-01T22:31:28.480Z,44.70
2018-06-01T22:33:55.952Z,48.30
2018-06-01T22:36:24.176Z,49.30
2018-06-01T22:38:52.413Z,49.40
2018-06-01T22:41:19.878Z,45.90
2018-06-01T22:43:47.352Z,47.07
2018-06-01T22:46:15.594Z,46.60
2018-06-01T22:48:43.052Z,42.13
2018-06-01T22:51:10.521Z,45.90
2018-06-01T22:53:37.982Z,44.50
2018-06-01T22:56:05.444Z,42.77
2018-06-01T22:58:32.929Z,43.53
2018-06-01T23:01:00.390Z,43.23
2018-06-01T23:03:27.858Z,45.03
2018-06-01T23:05:55.330Z,42.00
2018-06-01T23:08:22.785Z,43.20
2018-06-01T23:10:50.245Z,43.77
2018-06-01T23:13:17.750Z,48.03
2018-06-01T23:15:46.003Z,44.50
2018-06-01T23:18:13.493Z,44.70
2018-06-01T23:20:40.912Z,44.53
2018-06-01T23:23:08.372Z,43.13
2018-06-01T23:25:35.844Z,48.03
2018-06-01T23:28:03.301Z,46.80
2018-06-01T23:30:30.772Z,47.57
2018-06-01T23:32:59.002Z,46.27
2018-06-01T23:35:26.465Z,45.47
2018-06-01T23:37:53.929Z,48.97
2018-06-01T23:40:21.388Z,48.20
2018-06-01T23:42:48.860Z,46.33
2018-06-01T23:45:16.329Z,48.33
2018-06-01T23:47:44.569Z,50.47
2018-06-01T23:50:12.044Z,51.80
2018-06-01T23:52:39.509Z,48.47
2018-06-01T23:55:06.976Z,53.20
2018-06-01T23:57:35.201Z,48.63
